sensor_id;sensor_type;location;lat;lon;timestamp;P1;durP1;ratioP1;P2;durP2;ratioP2
61806;SDS011;47726;52.766;6.606;2023-02-08T00:01:36;24.58;;;17.75;;
61806;SDS011;47726;52.766;6.606;2023-02-08T00:04:01;24.25;;;17.63;;
61806;SDS011;47726;52.766;6.606;2023-02-08T00:06:27;22.40;;;16.98;;
61806;SDS011;47726;52.766;6.606;2023-02-08T00:08:53;25.23;;;17.23;;
61806;SDS011;47726;52.766;6.606;2023-02-08T00:11:18;24.42;;;17.55;;
61806;SDS011;47726;52.766;6.606;2023-02-08T00:13:44;23.52;;;17.15;;
61806;SDS011;47726;52.766;6.606;2023-02-08T00:16:09;23.02;;;16.90;;
61806;SDS011;47726;52.766;6.606;2023-02-08T00:18:37;21.13;;;16.15;;
61806;SDS011;47726;52.766;6.606;2023-02-08T00:21:06;24.05;;;16.30;;
61806;SDS011;47726;52.766;6.606;2023-02-08T00:23:33;20.95;;;15.77;;
61806;SDS011;47726;52.766;6.606;2023-02-08T00:25:58;21.00;;;15.43;;
61806;SDS011;47726;52.766;6.606;2023-02-08T00:28:24;20.88;;;16.02;;
61806;SDS011;47726;52.766;6.606;2023-02-08T00:30:50;20.38;;;15.77;;
61806;SDS011;47726;52.766;6.606;2023-02-08T00:33:17;21.10;;;15.68;;
61806;SDS011;47726;52.766;6.606;2023-02-08T00:35:43;21.90;;;15.82;;
61806;SDS011;47726;52.766;6.606;2023-02-08T00:38:08;23.48;;;15.70;;
61806;SDS011;47726;52.766;6.606;2023-02-08T00:40:34;23.20;;;16.02;;
61806;SDS011;47726;52.766;6.606;2023-02-08T00:43:00;20.63;;;15.07;;
61806;SDS011;47726;52.766;6.606;2023-02-08T00:45:26;21.48;;;15.50;;
61806;SDS011;47726;52.766;6.606;2023-02-08T00:47:52;21.23;;;14.82;;
61806;SDS011;47726;52.766;6.606;2023-02-08T00:50:17;21.67;;;15.93;;
61806;SDS011;47726;52.766;6.606;2023-02-08T00:52:43;20.92;;;15.70;;
61806;SDS011;47726;52.766;6.606;2023-02-08T00:55:09;21.63;;;15.70;;
61806;SDS011;47726;52.766;6.606;2023-02-08T00:57:34;21.00;;;16.02;;
61806;SDS011;47726;52.766;6.606;2023-02-08T01:00:00;22.42;;;16.27;;
61806;SDS011;47726;52.766;6.606;2023-02-08T01:02:27;23.85;;;17.10;;
61806;SDS011;47726;52.766;6.606;2023-02-08T01:04:53;22.15;;;16.63;;
61806;SDS011;47726;52.766;6.606;2023-02-08T01:07:18;21.55;;;16.10;;
61806;SDS011;47726;52.766;6.606;2023-02-08T01:09:44;21.73;;;16.38;;
61806;SDS011;47726;52.766;6.606;2023-02-08T01:12:09;24.02;;;16.98;;
61806;SDS011;47726;52.766;6.606;2023-02-08T01:14:38;24.05;;;16.92;;
61806;SDS011;47726;52.766;6.606;2023-02-08T01:17:04;21.92;;;16.33;;
61806;SDS011;47726;52.766;6.606;2023-02-08T01:19:30;22.95;;;16.65;;
61806;SDS011;47726;52.766;6.606;2023-02-08T01:21:56;24.80;;;16.90;;
61806;SDS011;47726;52.766;6.606;2023-02-08T01:24:22;23.95;;;17.27;;
61806;SDS011;47726;52.766;6.606;2023-02-08T01:26:47;23.42;;;16.90;;
61806;SDS011;47726;52.766;6.606;2023-02-08T01:29:13;23.98;;;17.38;;
61806;SDS011;47726;52.766;6.606;2023-02-08T01:31:40;25.33;;;17.75;;
61806;SDS011;47726;52.766;6.606;2023-02-08T01:34:06;23.55;;;16.52;;
61806;SDS011;47726;52.766;6.606;2023-02-08T01:36:33;24.05;;;17.42;;
61806;SDS011;47726;52.766;6.606;2023-02-08T01:38:59;23.33;;;16.52;;
61806;SDS011;47726;52.766;6.606;2023-02-08T01:41:26;23.95;;;17.17;;
61806;SDS011;47726;52.766;6.606;2023-02-08T01:44:08;23.52;;;16.52;;
61806;SDS011;47726;52.766;6.606;2023-02-08T01:47:11;24.92;;;17.35;;
61806;SDS011;47726;52.766;6.606;2023-02-08T01:49:36;25.63;;;16.90;;
61806;SDS011;47726;52.766;6.606;2023-02-08T01:54:44;29.80;;;17.83;;
61806;SDS011;47726;52.766;6.606;2023-02-08T01:57:15;31.40;;;20.05;;
61806;SDS011;47726;52.766;6.606;2023-02-08T01:59:44;34.47;;;20.58;;
61806;SDS011;47726;52.766;6.606;2023-02-08T02:02:13;34.67;;;20.88;;
61806;SDS011;47726;52.766;6.606;2023-02-08T02:04:41;33.65;;;20.50;;
61806;SDS011;47726;52.766;6.606;2023-02-08T02:07:07;35.13;;;20.90;;
61806;SDS011;47726;52.766;6.606;2023-02-08T02:12:09;30.55;;;20.02;;
61806;SDS011;47726;52.766;6.606;2023-02-08T02:14:37;30.27;;;19.33;;
61806;SDS011;47726;52.766;6.606;2023-02-08T02:17:03;30.05;;;19.38;;
61806;SDS011;47726;52.766;6.606;2023-02-08T02:19:51;26.90;;;17.98;;
61806;SDS011;47726;52.766;6.606;2023-02-08T02:33:33;27.02;;;18.15;;
61806;SDS011;47726;52.766;6.606;2023-02-08T02:42:24;30.00;;;19.63;;
61806;SDS011;47726;52.766;6.606;2023-02-08T02:50:44;30.95;;;20.70;;
61806;SDS011;47726;52.766;6.606;2023-02-08T02:53:25;31.25;;;19.95;;
61806;SDS011;47726;52.766;6.606;2023-02-08T02:55:55;32.88;;;20.92;;
61806;SDS011;47726;52.766;6.606;2023-02-08T02:58:26;29.73;;;19.40;;
61806;SDS011;47726;52.766;6.606;2023-02-08T03:00:53;31.45;;;19.95;;
61806;SDS011;47726;52.766;6.606;2023-02-08T03:03:21;31.13;;;20.63;;
61806;SDS011;47726;52.766;6.606;2023-02-08T03:05:48;35.33;;;21.92;;
61806;SDS011;47726;52.766;6.606;2023-02-08T03:11:15;33.22;;;20.05;;
61806;SDS011;47726;52.766;6.606;2023-02-08T03:16:41;37.60;;;22.75;;
61806;SDS011;47726;52.766;6.606;2023-02-08T03:19:34;42.60;;;24.33;;
61806;SDS011;47726;52.766;6.606;2023-02-08T03:22:10;41.70;;;23.50;;
61806;SDS011;47726;52.766;6.606;2023-02-08T03:30:16;32.20;;;19.98;;
61806;SDS011;47726;52.766;6.606;2023-02-08T03:33:07;31.45;;;19.20;;
61806;SDS011;47726;52.766;6.606;2023-02-08T03:35:47;32.72;;;19.90;;
61806;SDS011;47726;52.766;6.606;2023-02-08T03:38:26;30.88;;;19.80;;
61806;SDS011;47726;52.766;6.606;2023-02-08T03:40:57;31.92;;;20.70;;
61806;SDS011;47726;52.766;6.606;2023-02-08T03:43:46;31.85;;;19.85;;
61806;SDS011;47726;52.766;6.606;2023-02-08T03:46:23;31.55;;;19.85;;
61806;SDS011;47726;52.766;6.606;2023-02-08T03:49:02;28.45;;;19.65;;
61806;SDS011;47726;52.766;6.606;2023-02-08T03:51:34;31.17;;;19.33;;
61806;SDS011;47726;52.766;6.606;2023-02-08T03:54:03;26.73;;;18.33;;
61806;SDS011;47726;52.766;6.606;2023-02-08T03:59:16;25.95;;;17.55;;
61806;SDS011;47726;52.766;6.606;2023-02-08T04:01:50;26.90;;;17.50;;
61806;SDS011;47726;52.766;6.606;2023-02-08T04:04:21;25.00;;;17.85;;
61806;SDS011;47726;52.766;6.606;2023-02-08T04:06:49;23.83;;;16.70;;
61806;SDS011;47726;52.766;6.606;2023-02-08T04:09:15;25.02;;;17.15;;
61806;SDS011;47726;52.766;6.606;2023-02-08T04:11:40;25.02;;;17.58;;
61806;SDS011;47726;52.766;6.606;2023-02-08T04:14:06;23.35;;;16.58;;
61806;SDS011;47726;52.766;6.606;2023-02-08T04:16:32;24.60;;;17.88;;
61806;SDS011;47726;52.766;6.606;2023-02-08T04:18:57;23.92;;;17.48;;
61806;SDS011;47726;52.766;6.606;2023-02-08T04:21:23;25.08;;;17.63;;
61806;SDS011;47726;52.766;6.606;2023-02-08T04:23:48;22.67;;;16.98;;
61806;SDS011;47726;52.766;6.606;2023-02-08T04:26:14;24.30;;;17.00;;
61806;SDS011;47726;52.766;6.606;2023-02-08T04:28:39;25.70;;;16.92;;
61806;SDS011;47726;52.766;6.606;2023-02-08T04:31:05;22.75;;;16.52;;
61806;SDS011;47726;52.766;6.606;2023-02-08T04:33:30;24.15;;;17.08;;
61806;SDS011;47726;52.766;6.606;2023-02-08T04:35:56;23.17;;;17.02;;
61806;SDS011;47726;52.766;6.606;2023-02-08T04:38:21;23.92;;;17.50;;
61806;SDS011;47726;52.766;6.606;2023-02-08T04:40:47;24.13;;;16.88;;
61806;SDS011;47726;52.766;6.606;2023-02-08T04:43:13;23.38;;;16.98;;
61806;SDS011;47726;52.766;6.606;2023-02-08T04:45:38;22.67;;;16.38;;
61806;SDS011;47726;52.766;6.606;2023-02-08T04:48:04;23.20;;;17.60;;
61806;SDS011;47726;52.766;6.606;2023-02-08T04:50:31;22.35;;;16.50;;
61806;SDS011;47726;52.766;6.606;2023-02-08T04:52:57;23.17;;;17.10;;
61806;SDS011;47726;52.766;6.606;2023-02-08T04:55:22;25.08;;;17.35;;
61806;SDS011;47726;52.766;6.606;2023-02-08T04:57:48;25.75;;;17.92;;
61806;SDS011;47726;52.766;6.606;2023-02-08T05:00:14;24.80;;;17.65;;
61806;SDS011;47726;52.766;6.606;2023-02-08T05:02:40;25.45;;;17.95;;
61806;SDS011;47726;52.766;6.606;2023-02-08T05:05:05;26.92;;;18.58;;
61806;SDS011;47726;52.766;6.606;2023-02-08T05:07:31;25.15;;;18.30;;
61806;SDS011;47726;52.766;6.606;2023-02-08T05:09:56;27.02;;;18.60;;
61806;SDS011;47726;52.766;6.606;2023-02-08T05:12:22;26.20;;;17.92;;
61806;SDS011;47726;52.766;6.606;2023-02-08T05:14:48;24.90;;;18.73;;
61806;SDS011;47726;52.766;6.606;2023-02-08T05:17:13;26.38;;;17.85;;
61806;SDS011;47726;52.766;6.606;2023-02-08T05:19:39;27.85;;;18.58;;
61806;SDS011;47726;52.766;6.606;2023-02-08T05:22:04;26.45;;;18.33;;
61806;SDS011;47726;52.766;6.606;2023-02-08T05:24:30;25.95;;;18.83;;
61806;SDS011;47726;52.766;6.606;2023-02-08T05:26:55;26.20;;;18.67;;
61806;SDS011;47726;52.766;6.606;2023-02-08T05:29:21;27.17;;;18.83;;
61806;SDS011;47726;52.766;6.606;2023-02-08T05:31:46;27.75;;;19.00;;
61806;SDS011;47726;52.766;6.606;2023-02-08T05:34:12;26.50;;;18.33;;
61806;SDS011;47726;52.766;6.606;2023-02-08T05:36:38;25.52;;;18.20;;
61806;SDS011;47726;52.766;6.606;2023-02-08T05:39:04;27.23;;;18.98;;
61806;SDS011;47726;52.766;6.606;2023-02-08T05:41:30;28.13;;;18.83;;
61806;SDS011;47726;52.766;6.606;2023-02-08T05:43:55;26.40;;;18.45;;
61806;SDS011;47726;52.766;6.606;2023-02-08T05:46:21;25.75;;;18.30;;
61806;SDS011;47726;52.766;6.606;2023-02-08T05:48:46;29.83;;;19.38;;
61806;SDS011;47726;52.766;6.606;2023-02-08T05:51:12;25.65;;;17.98;;
61806;SDS011;47726;52.766;6.606;2023-02-08T05:53:38;30.25;;;18.83;;
61806;SDS011;47726;52.766;6.606;2023-02-08T05:56:04;26.90;;;19.10;;
61806;SDS011;47726;52.766;6.606;2023-02-08T05:58:29;26.00;;;19.00;;
61806;SDS011;47726;52.766;6.606;2023-02-08T06:00:55;25.50;;;18.02;;
61806;SDS011;47726;52.766;6.606;2023-02-08T06:03:21;29.38;;;19.50;;
61806;SDS011;47726;52.766;6.606;2023-02-08T06:05:47;29.90;;;18.90;;
61806;SDS011;47726;52.766;6.606;2023-02-08T06:08:13;27.08;;;18.58;;
61806;SDS011;47726;52.766;6.606;2023-02-08T06:10:39;27.98;;;20.15;;
61806;SDS011;47726;52.766;6.606;2023-02-08T06:13:04;25.33;;;18.02;;
61806;SDS011;47726;52.766;6.606;2023-02-08T06:15:30;27.85;;;19.70;;
61806;SDS011;47726;52.766;6.606;2023-02-08T06:17:56;25.90;;;18.85;;
61806;SDS011;47726;52.766;6.606;2023-02-08T06:20:21;26.95;;;19.48;;
61806;SDS011;47726;52.766;6.606;2023-02-08T06:22:47;28.17;;;19.80;;
61806;SDS011;47726;52.766;6.606;2023-02-08T06:25:13;30.25;;;19.63;;
61806;SDS011;47726;52.766;6.606;2023-02-08T06:27:38;28.60;;;19.08;;
61806;SDS011;47726;52.766;6.606;2023-02-08T06:30:04;28.83;;;19.58;;
61806;SDS011;47726;52.766;6.606;2023-02-08T06:32:30;27.50;;;19.10;;
61806;SDS011;47726;52.766;6.606;2023-02-08T06:34:56;28.20;;;19.20;;
61806;SDS011;47726;52.766;6.606;2023-02-08T06:37:22;28.55;;;19.38;;
61806;SDS011;47726;52.766;6.606;2023-02-08T06:39:47;26.77;;;18.58;;
61806;SDS011;47726;52.766;6.606;2023-02-08T06:42:13;31.45;;;19.98;;
61806;SDS011;47726;52.766;6.606;2023-02-08T06:44:39;28.75;;;19.92;;
61806;SDS011;47726;52.766;6.606;2023-02-08T06:47:04;28.92;;;19.58;;
61806;SDS011;47726;52.766;6.606;2023-02-08T06:49:30;27.52;;;18.83;;
61806;SDS011;47726;52.766;6.606;2023-02-08T06:51:55;26.42;;;19.50;;
61806;SDS011;47726;52.766;6.606;2023-02-08T06:54:21;26.52;;;19.17;;
61806;SDS011;47726;52.766;6.606;2023-02-08T06:56:47;28.33;;;20.25;;
61806;SDS011;47726;52.766;6.606;2023-02-08T06:59:13;29.08;;;20.00;;
61806;SDS011;47726;52.766;6.606;2023-02-08T07:01:38;26.30;;;18.95;;
61806;SDS011;47726;52.766;6.606;2023-02-08T07:04:04;28.02;;;20.10;;
61806;SDS011;47726;52.766;6.606;2023-02-08T07:06:30;26.40;;;18.98;;
61806;SDS011;47726;52.766;6.606;2023-02-08T07:08:56;28.63;;;19.02;;
61806;SDS011;47726;52.766;6.606;2023-02-08T07:11:21;28.42;;;19.52;;
61806;SDS011;47726;52.766;6.606;2023-02-08T07:13:47;28.52;;;20.02;;
61806;SDS011;47726;52.766;6.606;2023-02-08T07:16:14;28.35;;;19.27;;
61806;SDS011;47726;52.766;6.606;2023-02-08T07:18:40;28.60;;;19.38;;
61806;SDS011;47726;52.766;6.606;2023-02-08T07:21:06;28.13;;;19.73;;
61806;SDS011;47726;52.766;6.606;2023-02-08T07:23:31;27.65;;;19.50;;
61806;SDS011;47726;52.766;6.606;2023-02-08T07:25:57;27.65;;;19.95;;
61806;SDS011;47726;52.766;6.606;2023-02-08T07:28:28;28.30;;;19.15;;
61806;SDS011;47726;52.766;6.606;2023-02-08T07:30:54;29.55;;;20.25;;
61806;SDS011;47726;52.766;6.606;2023-02-08T07:33:20;28.15;;;20.05;;
61806;SDS011;47726;52.766;6.606;2023-02-08T07:35:46;27.83;;;20.08;;
61806;SDS011;47726;52.766;6.606;2023-02-08T07:38:11;32.53;;;20.17;;
61806;SDS011;47726;52.766;6.606;2023-02-08T07:40:37;27.17;;;19.25;;
61806;SDS011;47726;52.766;6.606;2023-02-08T07:43:04;27.67;;;20.08;;
61806;SDS011;47726;52.766;6.606;2023-02-08T07:45:30;29.55;;;19.05;;
61806;SDS011;47726;52.766;6.606;2023-02-08T07:47:56;28.30;;;20.00;;
61806;SDS011;47726;52.766;6.606;2023-02-08T07:50:21;32.22;;;20.98;;
61806;SDS011;47726;52.766;6.606;2023-02-08T07:52:47;41.80;;;22.98;;
61806;SDS011;47726;52.766;6.606;2023-02-08T07:55:13;70.47;;;32.22;;
61806;SDS011;47726;52.766;6.606;2023-02-08T07:57:44;69.93;;;30.38;;
61806;SDS011;47726;52.766;6.606;2023-02-08T08:00:13;78.68;;;34.00;;
61806;SDS011;47726;52.766;6.606;2023-02-08T08:02:39;70.50;;;30.98;;
61806;SDS011;47726;52.766;6.606;2023-02-08T08:05:06;53.42;;;27.83;;
61806;SDS011;47726;52.766;6.606;2023-02-08T08:07:32;56.58;;;27.45;;
61806;SDS011;47726;52.766;6.606;2023-02-08T08:09:57;46.45;;;24.67;;
61806;SDS011;47726;52.766;6.606;2023-02-08T08:12:23;35.33;;;23.42;;
61806;SDS011;47726;52.766;6.606;2023-02-08T08:14:49;37.40;;;24.30;;
61806;SDS011;47726;52.766;6.606;2023-02-08T08:18:05;38.83;;;23.10;;
61806;SDS011;47726;52.766;6.606;2023-02-08T08:20:48;33.83;;;22.20;;
61806;SDS011;47726;52.766;6.606;2023-02-08T08:24:16;32.50;;;21.40;;
61806;SDS011;47726;52.766;6.606;2023-02-08T08:31:41;32.25;;;22.17;;
61806;SDS011;47726;52.766;6.606;2023-02-08T08:34:07;32.35;;;22.42;;
61806;SDS011;47726;52.766;6.606;2023-02-08T08:36:32;33.90;;;22.52;;
61806;SDS011;47726;52.766;6.606;2023-02-08T08:38:58;30.35;;;22.00;;
61806;SDS011;47726;52.766;6.606;2023-02-08T08:41:23;33.45;;;23.98;;
61806;SDS011;47726;52.766;6.606;2023-02-08T08:43:51;33.35;;;22.70;;
61806;SDS011;47726;52.766;6.606;2023-02-08T08:46:17;32.78;;;24.40;;
61806;SDS011;47726;52.766;6.606;2023-02-08T08:48:43;31.67;;;22.48;;
61806;SDS011;47726;52.766;6.606;2023-02-08T08:51:09;30.63;;;22.50;;
61806;SDS011;47726;52.766;6.606;2023-02-08T08:53:35;32.10;;;22.33;;
61806;SDS011;47726;52.766;6.606;2023-02-08T08:56:01;31.35;;;22.63;;
61806;SDS011;47726;52.766;6.606;2023-02-08T08:58:27;31.58;;;22.55;;
61806;SDS011;47726;52.766;6.606;2023-02-08T09:00:55;29.92;;;21.60;;
61806;SDS011;47726;52.766;6.606;2023-02-08T09:03:22;27.90;;;21.33;;
61806;SDS011;47726;52.766;6.606;2023-02-08T09:05:48;27.52;;;21.40;;
61806;SDS011;47726;52.766;6.606;2023-02-08T09:08:14;30.73;;;21.85;;
61806;SDS011;47726;52.766;6.606;2023-02-08T09:10:39;28.25;;;21.55;;
61806;SDS011;47726;52.766;6.606;2023-02-08T09:13:05;27.42;;;21.08;;
61806;SDS011;47726;52.766;6.606;2023-02-08T09:15:31;27.58;;;21.08;;
61806;SDS011;47726;52.766;6.606;2023-02-08T09:17:56;28.80;;;21.38;;
61806;SDS011;47726;52.766;6.606;2023-02-08T09:20:22;27.30;;;20.35;;
61806;SDS011;47726;52.766;6.606;2023-02-08T09:22:48;27.27;;;20.38;;
61806;SDS011;47726;52.766;6.606;2023-02-08T09:25:13;27.42;;;20.58;;
61806;SDS011;47726;52.766;6.606;2023-02-08T09:27:39;27.63;;;20.73;;
61806;SDS011;47726;52.766;6.606;2023-02-08T09:30:05;29.80;;;21.17;;
61806;SDS011;47726;52.766;6.606;2023-02-08T09:32:31;26.77;;;20.60;;
61806;SDS011;47726;52.766;6.606;2023-02-08T09:34:58;43.78;;;20.65;;
61806;SDS011;47726;52.766;6.606;2023-02-08T09:37:24;27.23;;;21.15;;
61806;SDS011;47726;52.766;6.606;2023-02-08T09:39:49;28.40;;;20.17;;
61806;SDS011;47726;52.766;6.606;2023-02-08T09:42:19;26.52;;;19.35;;
61806;SDS011;47726;52.766;6.606;2023-02-08T09:47:32;25.00;;;19.30;;
61806;SDS011;47726;52.766;6.606;2023-02-08T09:50:13;27.17;;;20.10;;
61806;SDS011;47726;52.766;6.606;2023-02-08T09:53:07;26.15;;;19.08;;
61806;SDS011;47726;52.766;6.606;2023-02-08T09:55:43;25.83;;;18.95;;
61806;SDS011;47726;52.766;6.606;2023-02-08T09:58:24;24.73;;;18.48;;
61806;SDS011;47726;52.766;6.606;2023-02-08T10:00:54;24.48;;;18.13;;
61806;SDS011;47726;52.766;6.606;2023-02-08T10:03:29;25.58;;;18.08;;
61806;SDS011;47726;52.766;6.606;2023-02-08T10:05:56;24.48;;;17.17;;
61806;SDS011;47726;52.766;6.606;2023-02-08T10:08:22;24.90;;;17.70;;
61806;SDS011;47726;52.766;6.606;2023-02-08T10:19:31;22.83;;;17.13;;
61806;SDS011;47726;52.766;6.606;2023-02-08T10:35:26;23.23;;;16.67;;
61806;SDS011;47726;52.766;6.606;2023-02-08T10:38:00;21.23;;;15.32;;
61806;SDS011;47726;52.766;6.606;2023-02-08T10:40:35;22.27;;;16.45;;
61806;SDS011;47726;52.766;6.606;2023-02-08T10:46:01;23.67;;;16.73;;
61806;SDS011;47726;52.766;6.606;2023-02-08T10:51:51;22.75;;;16.70;;
61806;SDS011;47726;52.766;6.606;2023-02-08T10:54:17;20.08;;;15.70;;
61806;SDS011;47726;52.766;6.606;2023-02-08T10:56:48;20.33;;;15.00;;
61806;SDS011;47726;52.766;6.606;2023-02-08T10:59:28;20.65;;;15.13;;
61806;SDS011;47726;52.766;6.606;2023-02-08T11:01:57;21.85;;;16.25;;
61806;SDS011;47726;52.766;6.606;2023-02-08T11:04:23;19.75;;;15.13;;
61806;SDS011;47726;52.766;6.606;2023-02-08T11:06:49;20.38;;;15.57;;
61806;SDS011;47726;52.766;6.606;2023-02-08T11:11:47;20.30;;;15.77;;
61806;SDS011;47726;52.766;6.606;2023-02-08T11:14:17;20.55;;;15.13;;
61806;SDS011;47726;52.766;6.606;2023-02-08T11:16:50;22.20;;;16.05;;
61806;SDS011;47726;52.766;6.606;2023-02-08T11:22:00;21.88;;;15.77;;
61806;SDS011;47726;52.766;6.606;2023-02-08T11:24:34;21.77;;;16.13;;
61806;SDS011;47726;52.766;6.606;2023-02-08T11:27:17;22.00;;;16.08;;
61806;SDS011;47726;52.766;6.606;2023-02-08T11:33:12;21.13;;;15.73;;
61806;SDS011;47726;52.766;6.606;2023-02-08T11:35:40;20.60;;;15.82;;
61806;SDS011;47726;52.766;6.606;2023-02-08T11:38:06;21.67;;;15.90;;
61806;SDS011;47726;52.766;6.606;2023-02-08T11:40:43;22.40;;;16.05;;
61806;SDS011;47726;52.766;6.606;2023-02-08T11:43:20;19.23;;;13.43;;
61806;SDS011;47726;52.766;6.606;2023-02-08T11:45:51;16.53;;;12.73;;
61806;SDS011;47726;52.766;6.606;2023-02-08T11:48:21;17.95;;;12.70;;
61806;SDS011;47726;52.766;6.606;2023-02-08T11:50:53;18.33;;;12.38;;
61806;SDS011;47726;52.766;6.606;2023-02-08T11:56:25;18.20;;;12.70;;
61806;SDS011;47726;52.766;6.606;2023-02-08T12:01:24;15.95;;;11.40;;
61806;SDS011;47726;52.766;6.606;2023-02-08T12:03:53;17.25;;;12.10;;
61806;SDS011;47726;52.766;6.606;2023-02-08T12:11:47;15.55;;;11.23;;
61806;SDS011;47726;52.766;6.606;2023-02-08T12:14:29;15.25;;;10.98;;
61806;SDS011;47726;52.766;6.606;2023-02-08T12:23:00;15.05;;;10.73;;
61806;SDS011;47726;52.766;6.606;2023-02-08T12:25:40;15.60;;;10.57;;
61806;SDS011;47726;52.766;6.606;2023-02-08T12:28:19;14.05;;;9.90;;
61806;SDS011;47726;52.766;6.606;2023-02-08T12:36:13;11.40;;;8.52;;
61806;SDS011;47726;52.766;6.606;2023-02-08T12:45:21;13.00;;;9.30;;
61806;SDS011;47726;52.766;6.606;2023-02-08T12:48:09;14.15;;;9.90;;
61806;SDS011;47726;52.766;6.606;2023-02-08T12:50:40;13.07;;;9.93;;
61806;SDS011;47726;52.766;6.606;2023-02-08T12:53:24;11.98;;;9.10;;
61806;SDS011;47726;52.766;6.606;2023-02-08T12:56:08;14.13;;;9.52;;
61806;SDS011;47726;52.766;6.606;2023-02-08T12:58:43;14.10;;;9.25;;
61806;SDS011;47726;52.766;6.606;2023-02-08T13:01:22;12.93;;;8.90;;
61806;SDS011;47726;52.766;6.606;2023-02-08T13:03:56;10.30;;;7.60;;
61806;SDS011;47726;52.766;6.606;2023-02-08T13:06:47;11.30;;;7.40;;
61806;SDS011;47726;52.766;6.606;2023-02-08T13:12:20;10.35;;;7.10;;
61806;SDS011;47726;52.766;6.606;2023-02-08T13:14:51;10.10;;;6.55;;
61806;SDS011;47726;52.766;6.606;2023-02-08T13:20:01;9.02;;;6.53;;
61806;SDS011;47726;52.766;6.606;2023-02-08T13:22:46;11.25;;;7.30;;
61806;SDS011;47726;52.766;6.606;2023-02-08T13:25:13;11.27;;;6.72;;
61806;SDS011;47726;52.766;6.606;2023-02-08T13:27:51;9.73;;;6.60;;
61806;SDS011;47726;52.766;6.606;2023-02-08T13:30:18;8.98;;;6.18;;
61806;SDS011;47726;52.766;6.606;2023-02-08T13:32:45;9.55;;;6.05;;
61806;SDS011;47726;52.766;6.606;2023-02-08T13:35:15;7.95;;;6.00;;
61806;SDS011;47726;52.766;6.606;2023-02-08T13:38:03;9.02;;;5.93;;
61806;SDS011;47726;52.766;6.606;2023-02-08T13:40:42;9.32;;;6.32;;
61806;SDS011;47726;52.766;6.606;2023-02-08T13:46:00;8.20;;;5.80;;
61806;SDS011;47726;52.766;6.606;2023-02-08T13:48:26;9.98;;;5.90;;
61806;SDS011;47726;52.766;6.606;2023-02-08T13:51:08;8.98;;;5.70;;
61806;SDS011;47726;52.766;6.606;2023-02-08T13:59:27;8.75;;;5.40;;
61806;SDS011;47726;52.766;6.606;2023-02-08T14:02:09;9.43;;;5.85;;
61806;SDS011;47726;52.766;6.606;2023-02-08T14:04:43;8.93;;;5.53;;
61806;SDS011;47726;52.766;6.606;2023-02-08T14:15:39;7.05;;;5.00;;
61806;SDS011;47726;52.766;6.606;2023-02-08T14:18:17;7.05;;;4.90;;
61806;SDS011;47726;52.766;6.606;2023-02-08T14:20:59;6.68;;;4.55;;
61806;SDS011;47726;52.766;6.606;2023-02-08T14:23:30;6.70;;;4.50;;
61806;SDS011;47726;52.766;6.606;2023-02-08T14:26:01;7.20;;;5.10;;
61806;SDS011;47726;52.766;6.606;2023-02-08T14:28:36;6.63;;;4.47;;
61806;SDS011;47726;52.766;6.606;2023-02-08T14:31:06;8.05;;;4.57;;
61806;SDS011;47726;52.766;6.606;2023-02-08T14:33:35;7.85;;;4.75;;
61806;SDS011;47726;52.766;6.606;2023-02-08T14:36:25;6.10;;;4.53;;
61806;SDS011;47726;52.766;6.606;2023-02-08T14:42:11;6.45;;;4.45;;
61806;SDS011;47726;52.766;6.606;2023-02-08T14:49:48;7.35;;;4.60;;
61806;SDS011;47726;52.766;6.606;2023-02-08T14:52:19;6.43;;;4.53;;
61806;SDS011;47726;52.766;6.606;2023-02-08T14:54:47;6.55;;;4.63;;
61806;SDS011;47726;52.766;6.606;2023-02-08T14:59:49;8.13;;;4.68;;
61806;SDS011;47726;52.766;6.606;2023-02-08T15:02:19;6.85;;;4.45;;
61806;SDS011;47726;52.766;6.606;2023-02-08T15:04:46;7.18;;;4.60;;
61806;SDS011;47726;52.766;6.606;2023-02-08T15:09:43;6.63;;;4.60;;
61806;SDS011;47726;52.766;6.606;2023-02-08T15:15:27;6.20;;;4.57;;
61806;SDS011;47726;52.766;6.606;2023-02-08T15:17:58;6.60;;;4.47;;
61806;SDS011;47726;52.766;6.606;2023-02-08T15:20:27;6.85;;;4.53;;
61806;SDS011;47726;52.766;6.606;2023-02-08T15:25:31;7.70;;;4.93;;
61806;SDS011;47726;52.766;6.606;2023-02-08T15:27:59;6.97;;;4.70;;
61806;SDS011;47726;52.766;6.606;2023-02-08T15:30:32;7.13;;;4.47;;
61806;SDS011;47726;52.766;6.606;2023-02-08T15:33:00;7.15;;;4.53;;
61806;SDS011;47726;52.766;6.606;2023-02-08T15:35:53;6.25;;;4.32;;
61806;SDS011;47726;52.766;6.606;2023-02-08T15:38:24;6.30;;;4.40;;
61806;SDS011;47726;52.766;6.606;2023-02-08T15:41:00;6.93;;;4.72;;
61806;SDS011;47726;52.766;6.606;2023-02-08T15:43:34;5.82;;;3.97;;
61806;SDS011;47726;52.766;6.606;2023-02-08T15:46:02;6.90;;;4.60;;
61806;SDS011;47726;52.766;6.606;2023-02-08T15:48:29;6.35;;;4.10;;
61806;SDS011;47726;52.766;6.606;2023-02-08T15:50:56;7.22;;;4.53;;
61806;SDS011;47726;52.766;6.606;2023-02-08T15:53:23;5.57;;;4.30;;
61806;SDS011;47726;52.766;6.606;2023-02-08T15:55:50;7.90;;;5.35;;
61806;SDS011;47726;52.766;6.606;2023-02-08T15:58:27;5.82;;;4.10;;
61806;SDS011;47726;52.766;6.606;2023-02-08T16:00:57;6.32;;;4.20;;
61806;SDS011;47726;52.766;6.606;2023-02-08T16:03:25;6.40;;;4.40;;
61806;SDS011;47726;52.766;6.606;2023-02-08T16:05:59;6.50;;;4.30;;
61806;SDS011;47726;52.766;6.606;2023-02-08T16:08:28;6.53;;;4.10;;
61806;SDS011;47726;52.766;6.606;2023-02-08T16:10:59;5.93;;;4.40;;
61806;SDS011;47726;52.766;6.606;2023-02-08T16:13:32;6.15;;;4.13;;
61806;SDS011;47726;52.766;6.606;2023-02-08T16:18:46;6.72;;;4.15;;
61806;SDS011;47726;52.766;6.606;2023-02-08T16:26:27;7.45;;;4.47;;
61806;SDS011;47726;52.766;6.606;2023-02-08T16:29:00;5.88;;;4.10;;
61806;SDS011;47726;52.766;6.606;2023-02-08T16:31:30;6.53;;;4.10;;
61806;SDS011;47726;52.766;6.606;2023-02-08T16:36:31;6.30;;;3.88;;
61806;SDS011;47726;52.766;6.606;2023-02-08T16:44:23;5.78;;;3.95;;
61806;SDS011;47726;52.766;6.606;2023-02-08T16:47:01;10.35;;;4.80;;
61806;SDS011;47726;52.766;6.606;2023-02-08T16:50:03;7.45;;;4.60;;
61806;SDS011;47726;52.766;6.606;2023-02-08T16:52:30;8.02;;;4.70;;
61806;SDS011;47726;52.766;6.606;2023-02-08T16:54:56;9.20;;;4.78;;
61806;SDS011;47726;52.766;6.606;2023-02-08T16:57:23;9.90;;;5.47;;
61806;SDS011;47726;52.766;6.606;2023-02-08T16:59:48;8.45;;;5.20;;
61806;SDS011;47726;52.766;6.606;2023-02-08T17:02:14;9.70;;;5.60;;
61806;SDS011;47726;52.766;6.606;2023-02-08T17:04:39;9.98;;;5.32;;
61806;SDS011;47726;52.766;6.606;2023-02-08T17:07:05;10.07;;;5.18;;
61806;SDS011;47726;52.766;6.606;2023-02-08T17:09:41;8.23;;;5.20;;
61806;SDS011;47726;52.766;6.606;2023-02-08T17:12:08;7.95;;;5.10;;
61806;SDS011;47726;52.766;6.606;2023-02-08T17:14:35;8.93;;;5.45;;
61806;SDS011;47726;52.766;6.606;2023-02-08T17:17:00;8.07;;;5.18;;
61806;SDS011;47726;52.766;6.606;2023-02-08T17:19:26;7.50;;;5.22;;
61806;SDS011;47726;52.766;6.606;2023-02-08T17:21:51;8.00;;;5.07;;
61806;SDS011;47726;52.766;6.606;2023-02-08T17:24:17;7.70;;;4.97;;
61806;SDS011;47726;52.766;6.606;2023-02-08T17:26:44;8.68;;;4.80;;
61806;SDS011;47726;52.766;6.606;2023-02-08T17:29:10;5.68;;;4.40;;
61806;SDS011;47726;52.766;6.606;2023-02-08T17:31:36;7.22;;;5.03;;
61806;SDS011;47726;52.766;6.606;2023-02-08T17:34:02;8.68;;;4.78;;
61806;SDS011;47726;52.766;6.606;2023-02-08T17:36:31;8.10;;;5.22;;